sensor_id;sensor_type;location;lat;lon;timestamp;pressure;altitude;pressure_sealevel;temperature;humidity
38939;BME280;24211;49.980;19.776;2023-05-09T00:02:06;100410.47;;;6.13;100.00
38939;BME280;24211;49.980;19.776;2023-05-09T00:04:33;100416.13;;;6.10;100.00
38939;BME280;24211;49.980;19.776;2023-05-09T00:07:01;100415.97;;;6.04;100.00
38939;BME280;24211;49.980;19.776;2023-05-09T00:09:29;100412.81;;;6.00;100.00
38939;BME280;24211;49.980;19.776;2023-05-09T00:11:56;100400.88;;;5.96;100.00
38939;BME280;24211;49.980;19.776;2023-05-09T00:14:23;100407.19;;;5.95;100.00
38939;BME280;24211;49.980;19.776;2023-05-09T00:16:51;100408.34;;;5.92;100.00
38939;BME280;24211;49.980;19.776;2023-05-09T00:19:19;100406.06;;;5.89;100.00
38939;BME280;24211;49.980;19.776;2023-05-09T00:21:46;100408.19;;;5.86;100.00
38939;BME280;24211;49.980;19.776;2023-05-09T00:24:14;100404.69;;;5.77;100.00
38939;BME280;24211;49.980;19.776;2023-05-09T00:26:41;100414.16;;;5.72;100.00
38939;BME280;24211;49.980;19.776;2023-05-09T00:29:09;100400.72;;;5.65;100.00
38939;BME280;24211;49.980;19.776;2023-05-09T00:31:36;100396.25;;;5.66;100.00
38939;BME280;24211;49.980;19.776;2023-05-09T00:34:03;100397.41;;;5.63;100.00
38939;BME280;24211;49.980;19.776;2023-05-09T00:36:31;100394.28;;;5.60;100.00
38939;BME280;24211;49.980;19.776;2023-05-09T00:38:58;100395.44;;;5.57;100.00
38939;BME280;24211;49.980;19.776;2023-05-09T00:41:26;100390.97;;;5.50;100.00
38939;BME280;24211;49.980;19.776;2023-05-09T00:43:53;100393.94;;;5.47;100.00
38939;BME280;24211;49.980;19.776;2023-05-09T00:46:21;100384.66;;;5.43;100.00
38939;BME280;24211;49.980;19.776;2023-05-09T00:48:48;100385.81;;;5.40;100.00
38939;BME280;24211;49.980;19.776;2023-05-09T00:51:17;100382.66;;;5.37;100.00
38939;BME280;24211;49.980;19.776;2023-05-09T00:53:44;100384.84;;;5.33;100.00
38939;BME280;24211;49.980;19.776;2023-05-09T00:56:13;100384.47;;;5.36;100.00
38939;BME280;24211;49.980;19.776;2023-05-09T00:58:40;100374.72;;;5.37;100.00
38939;BME280;24211;49.980;19.776;2023-05-09T01:01:08;100379.69;;;5.32;100.00
38939;BME280;24211;49.980;19.776;2023-05-09T01:03:39;100377.19;;;5.22;100.00
38939;BME280;24211;49.980;19.776;2023-05-09T01:06:21;100376.53;;;5.20;100.00
38939;BME280;24211;49.980;19.776;2023-05-09T01:20:29;100372.06;;;5.12;100.00
38939;BME280;24211;49.980;19.776;2023-05-09T01:26:58;100368.88;;;5.09;100.00
38939;BME280;24211;49.980;19.776;2023-05-09T01:31:54;100369.06;;;5.07;100.00
38939;BME280;24211;49.980;19.776;2023-05-09T01:34:27;100373.69;;;5.05;100.00
38939;BME280;24211;49.980;19.776;2023-05-09T01:36:58;100366.06;;;5.02;100.00
38939;BME280;24211;49.980;19.776;2023-05-09T01:39:29;100380.66;;;4.98;100.00
38939;BME280;24211;49.980;19.776;2023-05-09T01:42:02;100373.34;;;4.92;100.00
38939;BME280;24211;49.980;19.776;2023-05-09T01:44:36;100369.38;;;4.88;100.00
38939;BME280;24211;49.980;19.776;2023-05-09T01:47:06;100361.41;;;4.88;100.00
38939;BME280;24211;49.980;19.776;2023-05-09T01:49:38;100366.06;;;4.86;100.00
38939;BME280;24211;49.980;19.776;2023-05-09T01:52:11;100364.72;;;4.82;100.00
38939;BME280;24211;49.980;19.776;2023-05-09T01:54:40;100372.13;;;4.71;100.00
38939;BME280;24211;49.980;19.776;2023-05-09T01:57:10;100368.00;;;4.68;100.00
38939;BME280;24211;49.980;19.776;2023-05-09T01:59:40;100375.59;;;4.63;100.00
38939;BME280;24211;49.980;19.776;2023-05-09T02:02:09;100369.97;;;4.66;100.00
38939;BME280;24211;49.980;19.776;2023-05-09T02:04:40;100369.66;;;4.69;100.00
38939;BME280;24211;49.980;19.776;2023-05-09T02:07:09;100376.78;;;4.69;100.00
38939;BME280;24211;49.980;19.776;2023-05-09T02:09:37;100361.50;;;4.62;100.00
38939;BME280;24211;49.980;19.776;2023-05-09T02:12:05;100362.66;;;4.60;100.00
38939;BME280;24211;49.980;19.776;2023-05-09T02:14:33;100357.53;;;4.58;100.00
38939;BME280;24211;49.980;19.776;2023-05-09T02:17:00;100353.09;;;4.59;100.00
38939;BME280;24211;49.980;19.776;2023-05-09T02:19:34;100370.91;;;4.57;100.00
38939;BME280;24211;49.980;19.776;2023-05-09T02:22:02;100361.00;;;4.51;100.00
38939;BME280;24211;49.980;19.776;2023-05-09T02:24:32;100357.00;;;4.47;100.00
38939;BME280;24211;49.980;19.776;2023-05-09T02:27:04;100361.25;;;4.40;100.00
38939;BME280;24211;49.980;19.776;2023-05-09T02:29:45;100360.28;;;4.41;100.00
38939;BME280;24211;49.980;19.776;2023-05-09T02:32:17;100357.81;;;4.39;100.00
38939;BME280;24211;49.980;19.776;2023-05-09T02:34:50;100355.97;;;4.32;100.00
38939;BME280;24211;49.980;19.776;2023-05-09T02:37:19;100350.97;;;4.29;100.00
38939;BME280;24211;49.980;19.776;2023-05-09T02:39:47;100347.97;;;4.24;100.00
38939;BME280;24211;49.980;19.776;2023-05-09T02:42:21;100346.47;;;4.21;100.00
38939;BME280;24211;49.980;19.776;2023-05-09T02:44:48;100351.59;;;4.23;100.00
38939;BME280;24211;49.980;19.776;2023-05-09T02:47:16;100340.22;;;4.22;100.00
38939;BME280;24211;49.980;19.776;2023-05-09T02:49:43;100348.28;;;4.21;100.00
38939;BME280;24211;49.980;19.776;2023-05-09T02:52:11;100346.22;;;4.32;100.00
38939;BME280;24211;49.980;19.776;2023-05-09T02:54:39;100350.66;;;4.32;100.00
38939;BME280;24211;49.980;19.776;2023-05-09T02:57:06;100353.28;;;4.24;100.00
38939;BME280;24211;49.980;19.776;2023-05-09T02:59:34;100350.78;;;4.22;100.00
38939;BME280;24211;49.980;19.776;2023-05-09T03:02:02;100348.28;;;4.21;100.00
38939;BME280;24211;49.980;19.776;2023-05-09T03:04:31;100342.88;;;4.30;100.00
38939;BME280;24211;49.980;19.776;2023-05-09T03:06:59;100343.22;;;4.27;100.00
38939;BME280;24211;49.980;19.776;2023-05-09T03:09:31;100349.66;;;4.25;100.00
38939;BME280;24211;49.980;19.776;2023-05-09T03:11:59;100357.72;;;4.23;100.00
38939;BME280;24211;49.980;19.776;2023-05-09T03:14:27;100357.22;;;4.20;100.00
38939;BME280;24211;49.980;19.776;2023-05-09T03:16:54;100359.53;;;4.15;100.00
38939;BME280;24211;49.980;19.776;2023-05-09T03:19:28;100350.22;;;4.03;100.00
38939;BME280;24211;49.980;19.776;2023-05-09T03:21:55;100352.81;;;3.94;100.00
38939;BME280;24211;49.980;19.776;2023-05-09T03:24:25;100351.13;;;3.93;100.00
38939;BME280;24211;49.980;19.776;2023-05-09T03:26:54;100351.81;;;3.95;100.00
38939;BME280;24211;49.980;19.776;2023-05-09T03:29:21;100351.84;;;4.04;100.00
38939;BME280;24211;49.980;19.776;2023-05-09T03:31:49;100358.44;;;4.00;100.00
38939;BME280;24211;49.980;19.776;2023-05-09T03:34:16;100360.78;;;4.03;100.00
38939;BME280;24211;49.980;19.776;2023-05-09T03:36:44;100350.41;;;4.09;100.00
38939;BME280;24211;49.980;19.776;2023-05-09T03:39:14;100362.00;;;4.16;100.00
38939;BME280;24211;49.980;19.776;2023-05-09T03:41:44;100364.16;;;4.21;100.00
38939;BME280;24211;49.980;19.776;2023-05-09T03:44:12;100364.38;;;4.27;100.00
38939;BME280;24211;49.980;19.776;2023-05-09T03:46:39;100364.88;;;4.31;100.00
38939;BME280;24211;49.980;19.776;2023-05-09T03:49:07;100364.88;;;4.31;100.00
38939;BME280;24211;49.980;19.776;2023-05-09T03:51:36;100369.91;;;4.42;100.00
38939;BME280;24211;49.980;19.776;2023-05-09T03:54:09;100365.44;;;4.50;100.00
38939;BME280;24211;49.980;19.776;2023-05-09T03:56:37;100363.66;;;4.59;100.00
38939;BME280;24211;49.980;19.776;2023-05-09T03:59:05;100358.38;;;4.59;100.00
38939;BME280;24211;49.980;19.776;2023-05-09T04:01:33;100361.72;;;4.69;100.00
38939;BME280;24211;49.980;19.776;2023-05-09T04:04:02;100360.22;;;4.67;100.00
38939;BME280;24211;49.980;19.776;2023-05-09T04:06:33;100362.38;;;4.79;100.00
38939;BME280;24211;49.980;19.776;2023-05-09T04:09:04;100366.53;;;4.90;100.00
38939;BME280;24211;49.980;19.776;2023-05-09T04:11:33;100368.38;;;4.97;100.00
38939;BME280;24211;49.980;19.776;2023-05-09T04:14:01;100367.41;;;5.06;100.00
38939;BME280;24211;49.980;19.776;2023-05-09T04:16:34;100365.09;;;5.19;100.00
38939;BME280;24211;49.980;19.776;2023-05-09T04:19:03;100366.59;;;5.30;100.00
38939;BME280;24211;49.980;19.776;2023-05-09T04:21:30;100367.09;;;5.42;100.00
38939;BME280;24211;49.980;19.776;2023-05-09T04:24:00;100370.09;;;5.55;100.00
38939;BME280;24211;49.980;19.776;2023-05-09T04:26:36;100358.78;;;5.69;100.00
38939;BME280;24211;49.980;19.776;2023-05-09T04:29:08;100359.09;;;5.90;100.00
38939;BME280;24211;49.980;19.776;2023-05-09T04:31:35;100354.94;;;6.04;100.00
38939;BME280;24211;49.980;19.776;2023-05-09T04:34:04;100351.56;;;6.18;100.00
38939;BME280;24211;49.980;19.776;2023-05-09T04:36:33;100353.50;;;6.32;100.00
38939;BME280;24211;49.980;19.776;2023-05-09T04:39:01;100346.66;;;6.45;100.00
38939;BME280;24211;49.980;19.776;2023-05-09T04:41:29;100345.91;;;6.59;100.00
38939;BME280;24211;49.980;19.776;2023-05-09T04:43:57;100339.16;;;6.80;100.00
38939;BME280;24211;49.980;19.776;2023-05-09T04:46:25;100344.38;;;6.96;100.00
38939;BME280;24211;49.980;19.776;2023-05-09T04:48:53;100343.88;;;7.15;100.00
38939;BME280;24211;49.980;19.776;2023-05-09T04:51:21;100347.09;;;7.33;100.00
38939;BME280;24211;49.980;19.776;2023-05-09T04:53:50;100352.53;;;7.54;100.00
38939;BME280;24211;49.980;19.776;2023-05-09T04:56:21;100346.44;;;7.68;100.00
38939;BME280;24211;49.980;19.776;2023-05-09T04:58:49;100353.63;;;7.82;100.00
38939;BME280;24211;49.980;19.776;2023-05-09T05:01:18;100334.16;;;7.97;100.00
38939;BME280;24211;49.980;19.776;2023-05-09T05:03:45;100342.81;;;8.13;100.00
38939;BME280;24211;49.980;19.776;2023-05-09T05:06:13;100338.44;;;8.35;100.00
38939;BME280;24211;49.980;19.776;2023-05-09T05:08:41;100347.22;;;8.50;100.00
38939;BME280;24211;49.980;19.776;2023-05-09T05:11:09;100346.00;;;8.67;100.00
38939;BME280;24211;49.980;19.776;2023-05-09T05:13:36;100336.38;;;8.87;100.00
38939;BME280;24211;49.980;19.776;2023-05-09T05:16:04;100338.91;;;9.16;100.00
38939;BME280;24211;49.980;19.776;2023-05-09T05:18:32;100339.94;;;9.37;100.00
38939;BME280;24211;49.980;19.776;2023-05-09T05:21:00;100332.72;;;9.58;100.00
38939;BME280;24211;49.980;19.776;2023-05-09T05:23:28;100323.41;;;9.75;100.00
38939;BME280;24211;49.980;19.776;2023-05-09T05:25:55;100327.00;;;9.89;100.00
38939;BME280;24211;49.980;19.776;2023-05-09T05:28:24;100331.41;;;10.03;100.00
38939;BME280;24211;49.980;19.776;2023-05-09T05:30:52;100329.13;;;10.34;100.00
38939;BME280;24211;49.980;19.776;2023-05-09T05:33:19;100316.91;;;10.60;100.00
38939;BME280;24211;49.980;19.776;2023-05-09T05:35:46;100318.41;;;10.75;100.00
38939;BME280;24211;49.980;19.776;2023-05-09T05:38:14;100313.31;;;11.00;100.00
38939;BME280;24211;49.980;19.776;2023-05-09T05:40:44;100316.66;;;11.35;100.00
38939;BME280;24211;49.980;19.776;2023-05-09T05:43:12;100308.00;;;11.52;100.00
38939;BME280;24211;49.980;19.776;2023-05-09T05:45:39;100305.91;;;11.67;100.00
38939;BME280;24211;49.980;19.776;2023-05-09T05:48:10;100300.59;;;11.80;100.00
38939;BME280;24211;49.980;19.776;2023-05-09T05:50:37;100307.97;;;12.05;100.00
38939;BME280;24211;49.980;19.776;2023-05-09T05:53:05;100296.72;;;12.34;100.00
38939;BME280;24211;49.980;19.776;2023-05-09T05:55:32;100294.19;;;12.52;100.00
38939;BME280;24211;49.980;19.776;2023-05-09T05:58:00;100288.78;;;12.65;100.00
38939;BME280;24211;49.980;19.776;2023-05-09T06:00:27;100297.31;;;12.80;100.00
38939;BME280;24211;49.980;19.776;2023-05-09T06:03:01;100287.31;;;13.00;100.00
38939;BME280;24211;49.980;19.776;2023-05-09T06:05:55;100286.44;;;13.13;100.00
38939;BME280;24211;49.980;19.776;2023-05-09T06:08:23;100288.78;;;13.28;100.00
38939;BME280;24211;49.980;19.776;2023-05-09T06:10:50;100292.81;;;13.43;100.00
38939;BME280;24211;49.980;19.776;2023-05-09T06:13:18;100289.94;;;13.63;100.00
38939;BME280;24211;49.980;19.776;2023-05-09T06:15:54;100291.63;;;13.82;100.00
38939;BME280;24211;49.980;19.776;2023-05-09T06:18:26;100290.28;;;13.91;100.00
38939;BME280;24211;49.980;19.776;2023-05-09T06:20:53;100286.88;;;14.02;100.00
38939;BME280;24211;49.980;19.776;2023-05-09T06:23:20;100286.06;;;14.20;100.00
38939;BME280;24211;49.980;19.776;2023-05-09T06:25:48;100286.50;;;14.35;100.00
38939;BME280;24211;49.980;19.776;2023-05-09T06:28:15;100279.25;;;14.54;100.00
38939;BME280;24211;49.980;19.776;2023-05-09T06:30:42;100275.03;;;14.58;100.00
38939;BME280;24211;49.980;19.776;2023-05-09T06:33:10;100265.72;;;14.72;100.00
38939;BME280;24211;49.980;19.776;2023-05-09T06:35:37;100269.31;;;14.84;100.00
38939;BME280;24211;49.980;19.776;2023-05-09T06:38:05;100265.97;;;15.00;100.00
38939;BME280;24211;49.980;19.776;2023-05-09T06:40:32;100266.34;;;15.15;100.00
38939;BME280;24211;49.980;19.776;2023-05-09T06:43:00;100261.22;;;15.25;100.00
38939;BME280;24211;49.980;19.776;2023-05-09T06:45:28;100261.94;;;15.32;100.00
38939;BME280;24211;49.980;19.776;2023-05-09T06:47:57;100259.63;;;15.47;100.00
38939;BME280;24211;49.980;19.776;2023-05-09T06:50:24;100256.22;;;15.63;100.00
38939;BME280;24211;49.980;19.776;2023-05-09T06:52:51;100256.13;;;15.82;100.00
38939;BME280;24211;49.980;19.776;2023-05-09T06:55:19;100253.50;;;15.98;94.22
38939;BME280;24211;49.980;19.776;2023-05-09T06:57:46;100252.09;;;15.96;100.00
38939;BME280;24211;49.980;19.776;2023-05-09T07:00:14;100245.41;;;15.98;100.00
38939;BME280;24211;49.980;19.776;2023-05-09T07:02:42;100238.94;;;16.11;94.26
38939;BME280;24211;49.980;19.776;2023-05-09T07:05:10;100242.06;;;16.31;98.74
38939;BME280;24211;49.980;19.776;2023-05-09T07:07:38;100234.03;;;16.48;87.63
38939;BME280;24211;49.980;19.776;2023-05-09T07:10:06;100236.88;;;16.41;89.24
38939;BME280;24211;49.980;19.776;2023-05-09T07:12:39;100229.53;;;16.25;89.48
38939;BME280;24211;49.980;19.776;2023-05-09T07:15:08;100226.00;;;16.36;85.92
38939;BME280;24211;49.980;19.776;2023-05-09T07:17:35;100230.97;;;16.44;84.68
38939;BME280;24211;49.980;19.776;2023-05-09T07:20:03;100218.66;;;16.76;82.28
38939;BME280;24211;49.980;19.776;2023-05-09T07:22:32;100223.31;;;16.64;81.68
38939;BME280;24211;49.980;19.776;2023-05-09T07:25:04;100219.78;;;16.64;82.76
38939;BME280;24211;49.980;19.776;2023-05-09T07:27:32;100215.31;;;16.69;76.59
38939;BME280;24211;49.980;19.776;2023-05-09T07:29:59;100217.03;;;16.75;74.90
38939;BME280;24211;49.980;19.776;2023-05-09T07:32:27;100215.03;;;16.99;73.48
38939;BME280;24211;49.980;19.776;2023-05-09T07:34:55;100208.00;;;17.15;64.28
38939;BME280;24211;49.980;19.776;2023-05-09T07:37:22;100214.09;;;17.10;63.54
38939;BME280;24211;49.980;19.776;2023-05-09T07:39:49;100210.44;;;16.99;63.20
38939;BME280;24211;49.980;19.776;2023-05-09T07:42:17;100213.06;;;16.94;64.59
38939;BME280;24211;49.980;19.776;2023-05-09T07:44:44;100211.03;;;16.73;65.62
38939;BME280;24211;49.980;19.776;2023-05-09T07:47:12;100203.72;;;17.19;61.74
38939;BME280;24211;49.980;19.776;2023-05-09T07:49:39;100199.72;;;17.21;60.70
38939;BME280;24211;49.980;19.776;2023-05-09T07:52:09;100189.59;;;17.50;61.90
38939;BME280;24211;49.980;19.776;2023-05-09T07:54:36;100198.66;;;17.55;62.57
38939;BME280;24211;49.980;19.776;2023-05-09T07:57:04;100194.69;;;17.30;62.72
38939;BME280;24211;49.980;19.776;2023-05-09T07:59:31;100180.94;;;17.86;60.05
38939;BME280;24211;49.980;19.776;2023-05-09T08:01:58;100195.03;;;18.10;57.95
38939;BME280;24211;49.980;19.776;2023-05-09T08:04:27;100189.00;;;18.03;58.54
38939;BME280;24211;49.980;19.776;2023-05-09T08:06:54;100191.59;;;17.54;56.86
38939;BME280;24211;49.980;19.776;2023-05-09T08:09:21;100179.69;;;17.94;56.08
38939;BME280;24211;49.980;19.776;2023-05-09T08:11:49;100177.34;;;17.59;57.69
38939;BME280;24211;49.980;19.776;2023-05-09T08:14:16;100168.94;;;18.20;55.90
38939;BME280;24211;49.980;19.776;2023-05-09T08:16:43;100174.59;;;18.46;54.82
38939;BME280;24211;49.980;19.776;2023-05-09T08:19:11;100167.81;;;18.70;52.48
38939;BME280;24211;49.980;19.776;2023-05-09T08:21:38;100157.25;;;19.00;51.17
38939;BME280;24211;49.980;19.776;2023-05-09T08:24:05;100147.00;;;18.70;51.36
38939;BME280;24211;49.980;19.776;2023-05-09T08:26:34;100157.44;;;18.57;52.21
38939;BME280;24211;49.980;19.776;2023-05-09T08:29:01;100146.00;;;18.50;51.26
38939;BME280;24211;49.980;19.776;2023-05-09T08:31:29;100148.09;;;18.69;50.56
38939;BME280;24211;49.980;19.776;2023-05-09T08:33:56;100153.63;;;18.84;51.93
38939;BME280;24211;49.980;19.776;2023-05-09T08:36:24;100142.25;;;18.87;51.93
38939;BME280;24211;49.980;19.776;2023-05-09T08:38:51;100150.34;;;18.82;51.35
38939;BME280;24211;49.980;19.776;2023-05-09T08:41:25;100140.25;;;18.73;49.90
38939;BME280;24211;49.980;19.776;2023-05-09T08:43:56;100138.09;;;18.75;50.27
38939;BME280;24211;49.980;19.776;2023-05-09T08:46:46;100144.66;;;18.79;50.58
38939;BME280;24211;49.980;19.776;2023-05-09T08:49:15;100138.84;;;19.02;50.60
38939;BME280;24211;49.980;19.776;2023-05-09T08:51:44;100130.03;;;19.64;46.96
38939;BME280;24211;49.980;19.776;2023-05-09T08:54:13;100133.41;;;19.86;47.61
38939;BME280;24211;49.980;19.776;2023-05-09T08:56:42;100127.91;;;19.29;48.94
38939;BME280;24211;49.980;19.776;2023-05-09T08:59:09;100134.31;;;19.49;47.45
38939;BME280;24211;49.980;19.776;2023-05-09T09:01:37;100131.56;;;18.71;47.86
38939;BME280;24211;49.980;19.776;2023-05-09T09:04:07;100134.50;;;18.96;47.76
38939;BME280;24211;49.980;19.776;2023-05-09T09:06:35;100132.13;;;18.73;49.52
38939;BME280;24211;49.980;19.776;2023-05-09T09:09:06;100130.56;;;19.55;47.16
38939;BME280;24211;49.980;19.776;2023-05-09T09:11:39;100129.97;;;19.43;46.54
38939;BME280;24211;49.980;19.776;2023-05-09T09:14:20;100133.38;;;19.34;46.51
38939;BME280;24211;49.980;19.776;2023-05-09T09:16:50;100125.19;;;18.87;47.28
38939;BME280;24211;49.980;19.776;2023-05-09T09:19:21;100124.25;;;19.40;48.62
38939;BME280;24211;49.980;19.776;2023-05-09T09:21:52;100120.13;;;18.64;47.75
38939;BME280;24211;49.980;19.776;2023-05-09T09:24:21;100116.72;;;18.47;47.61
38939;BME280;24211;49.980;19.776;2023-05-09T09:26:50;100110.41;;;18.68;47.19
38939;BME280;24211;49.980;19.776;2023-05-09T09:29:18;100113.56;;;18.06;47.83
38939;BME280;24211;49.980;19.776;2023-05-09T09:31:52;100120.13;;;18.64;48.23
38939;BME280;24211;49.980;19.776;2023-05-09T09:34:22;100111.38;;;19.25;46.02
38939;BME280;24211;49.980;19.776;2023-05-09T09:36:49;100104.97;;;19.36;45.09
38939;BME280;24211;49.980;19.776;2023-05-09T09:39:17;100110.25;;;19.16;45.33
38939;BME280;24211;49.980;19.776;2023-05-09T09:41:44;100107.31;;;19.23;44.87
38939;BME280;24211;49.980;19.776;2023-05-09T09:44:13;100106.25;;;19.81;45.18
38939;BME280;24211;49.980;19.776;2023-05-09T09:49:23;100098.00;;;19.50;44.50
38939;BME280;24211;49.980;19.776;2023-05-09T09:51:57;100096.56;;;20.00;45.52
38939;BME280;24211;49.980;19.776;2023-05-09T09:54:26;100094.94;;;19.99;43.00
38939;BME280;24211;49.980;19.776;2023-05-09T09:56:54;100095.41;;;19.86;44.02
38939;BME280;24211;49.980;19.776;2023-05-09T09:59:24;100086.38;;;19.13;43.51
38939;BME280;24211;49.980;19.776;2023-05-09T10:02:05;100084.13;;;20.14;44.03
38939;BME280;24211;49.980;19.776;2023-05-09T10:04:36;100092.22;;;20.04;43.82
38939;BME280;24211;49.980;19.776;2023-05-09T10:07:08;100088.44;;;20.15;43.37
38939;BME280;24211;49.980;19.776;2023-05-09T10:09:41;100080.91;;;20.27;43.35
38939;BME280;24211;49.980;19.776;2023-05-09T10:12:10;100080.84;;;20.02;42.51
38939;BME280;24211;49.980;19.776;2023-05-09T10:14:42;100082.53;;;20.33;44.41
38939;BME280;24211;49.980;19.776;2023-05-09T10:17:13;100085.28;;;20.63;42.88
38939;BME280;24211;49.980;19.776;2023-05-09T10:19:44;100079.28;;;21.02;41.94
38939;BME280;24211;49.980;19.776;2023-05-09T10:22:14;100073.84;;;20.97;40.54
38939;BME280;24211;49.980;19.776;2023-05-09T10:27:27;100069.50;;;21.01;40.56
38939;BME280;24211;49.980;19.776;2023-05-09T10:30:49;100067.88;;;21.00;41.20
38939;BME280;24211;49.980;19.776;2023-05-09T10:33:03;100071.59;;;21.39;41.14
38939;BME280;24211;49.980;19.776;2023-05-09T10:35:36;100061.88;;;21.23;41.29
38939;BME280;24211;49.980;19.776;2023-05-09T10:38:05;100054.69;;;21.57;41.25
38939;BME280;24211;49.980;19.776;2023-05-09T10:40:33;100055.41;;;20.78;41.60
38939;BME280;24211;49.980;19.776;2023-05-09T10:43:01;100047.28;;;20.63;41.44
38939;BME280;24211;49.980;19.776;2023-05-09T10:45:29;100040.44;;;20.86;40.79
38939;BME280;24211;49.980;19.776;2023-05-09T10:47:57;100044.22;;;21.15;41.14
38939;BME280;24211;49.980;19.776;2023-05-09T10:50:25;100034.50;;;21.63;40.58
38939;BME280;24211;49.980;19.776;2023-05-09T10:53:05;100038.38;;;21.52;40.06
38939;BME280;24211;49.980;19.776;2023-05-09T10:58:28;100024.00;;;22.34;39.76
38939;BME280;24211;49.980;19.776;2023-05-09T11:00:58;100036.34;;;21.14;38.04
38939;BME280;24211;49.980;19.776;2023-05-09T11:03:51;100036.69;;;21.66;38.89
38939;BME280;24211;49.980;19.776;2023-05-09T11:06:47;100033.84;;;21.96;38.59
38939;BME280;24211;49.980;19.776;2023-05-09T11:09:28;100024.63;;;21.77;38.48
38939;BME280;24211;49.980;19.776;2023-05-09T11:12:00;100018.09;;;21.83;38.94
38939;BME280;24211;49.980;19.776;2023-05-09T11:22:26;100008.09;;;21.00;38.97
38939;BME280;24211;49.980;19.776;2023-05-09T11:27:59;99999.66;;;21.70;40.00
38939;BME280;24211;49.980;19.776;2023-05-09T11:30:42;100012.44;;;21.01;40.39
38939;BME280;24211;49.980;19.776;2023-05-09T11:33:43;99993.88;;;21.28;40.14
38939;BME280;24211;49.980;19.776;2023-05-09T11:38:41;100003.75;;;20.88;38.84
38939;BME280;24211;49.980;19.776;2023-05-09T11:41:10;100003.28;;;20.56;40.74
38939;BME280;24211;49.980;19.776;2023-05-09T11:43:38;99990.25;;;20.58;40.54
38939;BME280;24211;49.980;19.776;2023-05-09T11:46:07;99986.47;;;20.39;41.20
38939;BME280;24211;49.980;19.776;2023-05-09T11:48:38;99983.66;;;19.79;41.62
38939;BME280;24211;49.980;19.776;2023-05-09T11:51:06;99980.47;;;20.22;42.21
38939;BME280;24211;49.980;19.776;2023-05-09T11:53:33;99978.31;;;20.24;41.31
38939;BME280;24211;49.980;19.776;2023-05-09T11:56:03;99979.38;;;20.58;40.08
38939;BME280;24211;49.980;19.776;2023-05-09T11:58:30;99975.00;;;20.62;40.82
38939;BME280;24211;49.980;19.776;2023-05-09T12:00:59;99959.56;;;20.33;40.90
38939;BME280;24211;49.980;19.776;2023-05-09T12:03:26;99967.88;;;19.50;40.21
38939;BME280;24211;49.980;19.776;2023-05-09T12:05:54;99966.88;;;20.42;40.66
38939;BME280;24211;49.980;19.776;2023-05-09T12:08:23;99956.78;;;20.88;39.96
38939;BME280;24211;49.980;19.776;2023-05-09T12:10:51;99949.91;;;21.11;40.58
38939;BME280;24211;49.980;19.776;2023-05-09T12:13:18;99957.66;;;20.38;41.27
38939;BME280;24211;49.980;19.776;2023-05-09T12:15:46;99953.81;;;20.69;41.99
38939;BME280;24211;49.980;19.776;2023-05-09T12:18:13;99950.06;;;20.25;41.12
38939;BME280;24211;49.980;19.776;2023-05-09T12:20:48;99945.03;;;21.03;40.63
38939;BME280;24211;49.980;19.776;2023-05-09T12:23:17;99941.66;;;20.11;40.36
38939;BME280;24211;49.980;19.776;2023-05-09T12:25:53;99938.69;;;20.23;39.83
38939;BME280;24211;49.980;19.776;2023-05-09T12:28:25;99933.78;;;20.30;40.25
38939;BME280;24211;49.980;19.776;2023-05-09T12:30:53;99940.81;;;19.91;40.57
38939;BME280;24211;49.980;19.776;2023-05-09T12:33:21;99938.47;;;19.22;39.26
38939;BME280;24211;49.980;19.776;2023-05-09T12:36:12;99934.03;;;19.83;39.43
38939;BME280;24211;49.980;19.776;2023-05-09T12:38:39;99925.63;;;20.45;39.91
38939;BME280;24211;49.980;19.776;2023-05-09T12:41:09;99921.00;;;20.15;41.21
38939;BME280;24211;49.980;19.776;2023-05-09T12:43:57;99923.16;;;19.73;40.99
38939;BME280;24211;49.980;19.776;2023-05-09T12:46:25;99933.25;;;20.33;41.44
38939;BME280;24211;49.980;19.776;2023-05-09T12:48:53;99918.97;;;20.92;41.83
38939;BME280;24211;49.980;19.776;2023-05-09T12:51:21;99916.53;;;21.05;40.11
38939;BME280;24211;49.980;19.776;2023-05-09T12:53:48;99915.00;;;21.33;40.26
38939;BME280;24211;49.980;19.776;2023-05-09T12:56:19;99905.94;;;21.47;39.00
38939;BME280;24211;49.980;19.776;2023-05-09T12:58:54;99907.97;;;21.27;37.24
38939;BME280;24211;49.980;19.776;2023-05-09T13:01:27;99910.94;;;20.61;37.81
38939;BME280;24211;49.980;19.776;2023-05-09T13:04:03;99907.50;;;21.15;37.89
38939;BME280;24211;49.980;19.776;2023-05-09T13:06:33;99897.38;;;21.25;37.76
38939;BME280;24211;49.980;19.776;2023-05-09T13:09:03;99894.94;;;21.24;38.09
38939;BME280;24211;49.980;19.776;2023-05-09T13:11:32;99900.44;;;21.04;37.81
38939;BME280;24211;49.980;19.776;2023-05-09T13:14:01;99897.94;;;19.88;37.36
38939;BME280;24211;49.980;19.776;2023-05-09T13:16:30;99890.34;;;20.10;38.38
38939;BME280;24211;49.980;19.776;2023-05-09T13:18:57;99885.94;;;20.54;38.58
38939;BME280;24211;49.980;19.776;2023-05-09T13:21:25;99871.75;;;20.82;38.39
38939;BME280;24211;49.980;19.776;2023-05-09T13:23:52;99872.81;;;20.86;38.93
38939;BME280;24211;49.980;19.776;2023-05-09T13:26:21;99866.19;;;21.13;38.80
38939;BME280;24211;49.980;19.776;2023-05-09T13:28:48;99877.19;;;20.77;37.90
38939;BME280;24211;49.980;19.776;2023-05-09T13:31:17;99867.97;;;20.73;38.88
38939;BME280;24211;49.980;19.776;2023-05-09T13:33:44;99868.88;;;20.54;38.71